全部
Rinteln Airport (Rinteln, Lower Saxony) EDVR 天气
There is no TAF data available at EDVR. Showing TAF data for ETHB (7 mi N).
ETHB终端机场天气预报(EDVR无数据)
| Date | Time (CEST) | Flight Rules | Wind Dir. | Speed | Type | Height AGL (ft) | Visibility | Remarks | ||||||
|---|---|---|---|---|---|---|---|---|---|---|---|---|---|---|
There is no METAR data available at EDVR. Showing METAR data for ETHB (7 mi N).
ETHB近期METAR历史数据(EDVR无数据)
| Date | Time (CEST) | Flight Rules | Wind Dir. | Speed | Type | Height AGL (ft) | Visibility | Temp (°C) | Temp (°F) | Dew Point (°C) | Dew Point (°F) | Rel. Humid. | Pressure | Density Altitude | Remarks |
|---|---|---|---|---|---|---|---|---|---|---|---|---|---|---|---|
| 05-九月 | 23:20 | VFR | 260° | 6 kt | 10000 meters | 13° | 55° | 9° | 48° | 77% | 1024 mb | -329 ft | |||
| 05-九月 | 22:20 | VFR | 280° | 8 kt | 10000 meters | 15° | 59° | 8° | 46° | 63% | 1023 mb | -59 ft | |||
| 05-九月 | 21:20 | VFR | 290° | 10 kt | 10000 meters | 16° | 60° | 9° | 48° | 63% | 1023 mb | 61 ft | |||
| 05-九月 | 20:20 | VFR | 290° | 10 kt | 10000 meters | 17° | 62° | 9° | 48° | 59% | 1022 mb | 210 ft | |||
| 05-九月 | 19:20 | VFR | 290° | 15 kt | 10000 meters | 18° | 64° | 8° | 46° | 52% | 1021 mb | 360 ft | |||
| 05-九月 | 18:20 | VFR | 290° | 17 kt | 10000 meters | 19° | 66° | 9° | 48° | 52% | 1020 mb | 509 ft | |||
| 05-九月 | 17:20 | VFR | 290° | 23 kt | 10000 meters | 20° | 68° | 8° | 46° | 46% | 1019 mb | 659 ft | |||
| 05-九月 | 16:20 | VFR | 290° | 15 kt | 10000 meters | 20° | 68° | 10° | 50° | 53% | 1019 mb | 659 ft | |||
| 05-九月 | 15:20 | VFR | 270° | 17 kt | 10000 meters | 19° | 66° | 11° | 51° | 60% | 1018 mb | 568 ft | Wind gusting to 29 KT | ||
| 05-九月 | 14:20 | VFR | 270° | 13 kt | 10000 meters | 16° | 60° | 13° | 55° | 82% | 1018 mb | 208 ft | |||
| 05-九月 | 13:20 | VFR | 260° | 18 kt | 10000 meters | 19° | 66° | 11° | 51° | 60% | 1017 mb | 598 ft | |||
| 05-九月 | 12:20 | VFR | 260° | 14 kt | 10000 meters | 19° | 66° | 11° | 51° | 60% | 1017 mb | 598 ft | |||
| 05-九月 | 11:20 | VFR | 270° | 17 kt | 10000 meters | 19° | 66° | 11° | 51° | 60% | 1017 mb | 598 ft | |||
| 05-九月 | 10:20 | VFR | 260° | 15 kt | 10000 meters | 18° | 64° | 12° | 53° | 68% | 1016 mb | 508 ft | Wind gusting to 25 KT | ||
| 05-九月 | 09:20 | VFR | 260° | 13 kt | 10000 meters | 16° | 60° | 12° | 53° | 77% | 1016 mb | 268 ft | |||
| 05-九月 | 08:20 | VFR | 250° | 12 kt | 10000 meters | 15° | 59° | 11° | 51° | 77% | 1016 mb | 148 ft | |||
| 05-九月 | 07:20 | VFR | 250° | 11 kt | 10000 meters | 14° | 57° | 11° | 51° | 82% | 1015 mb | 57 ft | |||
| 05-九月 | 06:20 | VFR | 250° | 11 kt | 10000 meters | 14° | 57° | 11° | 51° | 82% | 1015 mb | 57 ft | |||
| 05-九月 | 05:20 | VFR | 250° | 10 kt | 10000 meters | 14° | 57° | 11° | 51° | 82% | 1015 mb | 57 ft | |||
| 05-九月 | 04:20 | VFR | 250° | 10 kt | 10000 meters | 14° | 57° | 12° | 53° | 88% | 1014 mb | 87 ft | Wind gusting to 20 KT | ||
| 05-九月 | 03:20 | VFR | 260° | 10 kt | 10000 meters | 15° | 59° | 12° | 53° | 82% | 1014 mb | 207 ft | |||
| 05-九月 | 02:20 | VFR | 260° | 10 kt | 10000 meters | 15° | 59° | 12° | 53° | 82% | 1014 mb | 207 ft | |||
| 05-九月 | 01:20 | VFR | 260° | 11 kt | 10000 meters | 15° | 59° | 11° | 51° | 77% | 1013 mb | 236 ft | |||
| 05-九月 | 00:20 | VFR | 270° | 10 kt | 10000 meters | 16° | 60° | 12° | 53° | 77% | 1013 mb | 356 ft |
登录
| 您的浏览器不支持. 升级您的浏览器 |
